Weather observations for the past three days for
Bemidji
Imperial (Metric)
Date Time (cdt) Wind (mph) Vis. (mi.) Weather Sky Cond. Temperature (ºF) Relative Humidity Wind Chill (°F) Heat Index (°F) Pressure Precipitation (in)
Air Dwpt 6 hour altimeter (in) sea level (mb) 1 hr 3 hr 6 hr
Max. Min.
03 16:15 W 10 G 22 10.00 Fair CLR 67.3 27.3 22% 29.64 0.0
03 15:55 W 16 G 23 10.00 Fair CLR 64.9 27.5 24% 29.65 0.0
03 15:35 W 13 G 21 10.00 Fair CLR 66.2 28.8 25% 29.66 0.0
03 15:15 W 13 G 23 10.00 Fair CLR 64.6 28.2 25% 29.66 0.0
03 14:55 W 16 G 28 10.00 Fair CLR 64.8 27.9 25% 29.68 0.0
03 14:35 W 10 G 24 10.00 Fair CLR 63.9 28.8 27% 29.69 0.0
03 14:15 W 16 G 23 10.00 Fair CLR 63.7 28 26% 29.7 0.0
03 13:55 W 17 10.00 Fair CLR 63.3 27.3 26% 29.72 0.0
03 13:35 W 20 G 25 10.00 Fair CLR 63.1 27.7 26% 29.73 0.0
03 13:15 W 16 G 24 10.00 Fair CLR 61.7 28 28% 29.74 0.0
03 12:55 W 15 G 18 10.00 Fair CLR 61.3 27.9 61.3 37.6 28% 29.75 0.0
03 12:35 W 17 G 22 10.00 Fair CLR 59.9 27 28% 29.76 0.0
03 12:15 NW 14 G 21 10.00 Fair CLR 59.4 27.5 30% 29.76 0.0
03 11:55 NW 16 G 25 10.00 Fair CLR 58.8 27.3 30% 29.78 0.0
03 11:35 NW 15 10.00 Fair CLR 58.3 27.1 30% 29.78 0.0
03 11:15 NW 14 G 24 10.00 Fair CLR 57.6 26.2 30% 29.79 0.0
03 10:55 N 13 G 21 10.00 Fair CLR 55.9 24.1 29% 29.79 0.0
03 10:35 NW 14 10.00 Fair CLR 55.6 25.3 31% 29.79 0.0
03 10:15 NW 9 G 18 10.00 Fair CLR 54 23.9 31% 29.79 0.0
03 09:55 NW 15 G 18 10.00 Fair CLR 53.4 24.6 33% 29.79 0.0
03 09:35 NW 10 10.00 Fair CLR 52 24.3 34% 29.79 0.0
03 09:15 N 13 10.00 Fair CLR 51.3 25.9 37% 29.8 0.0
03 08:55 N 12 G 17 10.00 Fair CLR 49.3 26.2 41% 45 29.8 0.0
03 08:35 N 12 G 17 10.00 Fair CLR 47.8 27.7 46% 43 29.79 0.0
03 08:15 N 9 10.00 Fair CLR 46.6 28.8 50% 43 29.79 0.0
03 07:55 NW 9 10.00 Fair CLR 44.4 29.3 55% 40 29.79 0.0
03 07:35 NW 6 10.00 Fair CLR 42.4 31.5 65% 39 29.79 0.0
03 07:15 NW 5 10.00 Fair CLR 39.6 32 74% 37 29.78 0.0
03 06:55 NW 6 10.00 Fair CLR 37.4 31.1 40.8 33.3 78% 33 29.78 0.0
03 06:35 NW 6 10.00 Fair CLR 36 30 79% 32 29.77 0.0
03 06:15 NW 7 10.00 Fair CLR 37.6 30.7 76% 33 29.77 0.0
03 05:55 NW 8 10.00 Fair CLR 38.7 32 77% 34 29.76 0.0
03 05:35 NW 9 10.00 Fair CLR 38.5 33.6 83% 33 29.76 0.0
03 05:15 NW 8 10.00 Fair CLR 37.6 34.7 89% 32 29.76 0.0
03 04:55 NW 8 10.00 Fair CLR 36.1 34.5 94% 30 29.76 0.0
03 04:35 NW 8 10.00 Fair CLR 36.9 35.6 95% 31 29.75 0.0
03 04:15 NW 8 10.00 Fair CLR 37.6 36 94% 32 29.75 0.0
03 03:55 NW 8 10.00 Fair CLR 37.4 35.1 91% 32 29.75 0.0
03 03:35 NW 8 10.00 Fair CLR 37.4 35.4 93% 32 29.74 0.0
03 03:15 NW 6 10.00 Fair CLR 36.5 34.7 93% 32 29.74 0.0
03 02:55 NW 5 10.00 Fair CLR 36.7 35.6 96% 33 29.74 0.0
03 02:35 NW 7 10.00 Fair CLR 36 32.4 87% 31 29.74 0.0
03 02:15 NW 5 10.00 Fair CLR 35.6 32.5 89% 32 29.74 0.0
03 01:55 NW 3 10.00 Fair CLR 37 34.7 91% 29.74 0.0
03 01:35 NW 3 10.00 Fair CLR 38.5 35.8 90% 29.74 0.0
03 01:15 NW 5 10.00 Fair CLR 37 34.9 92% 34 29.74 0.0
03 00:55 Calm 10.00 Partly Cloudy SCT100 41 34.9 58.5 41 79% 29.74 0.0
03 00:35 Calm 10.00 Mostly Cloudy BKN100 46.4 37.6 71% 29.74 0.0
03 00:15 Calm 10.00 Mostly Cloudy BKN100 45.7 37.4 73% 29.74 0.0
02 23:55 N 5 10.00 Partly Cloudy SCT100 46.8 37.4 70% 45 29.74 0.0
02 23:35 N 6 10.00 Partly Cloudy SCT120 48.7 36.3 62% 47 29.74 0.0
02 23:15 N 6 10.00 Mostly Cloudy SCT090 BKN120 49.8 34.7 56% 48 29.74 0.0
02 22:55 NE 6 10.00 Overcast OVC090 51.3 35.2 54% 29.74 0.0
02 22:35 NE 5 10.00 Overcast BKN090 OVC110 50.9 35.2 55% 29.74 0.0
02 22:15 SE 6 10.00 Overcast SCT075 OVC100 52.3 35.6 53% 29.74 0.0
02 21:55 E 5 10.00 Overcast SCT055 SCT065 OVC090 51.3 36.3 57% 29.74 0.0
02 21:35 E 6 10.00 Overcast SCT080 OVC090 52.9 36 53% 29.74 0.0
02 21:15 SE 6 10.00 Overcast OVC090 52.7 36.3 54% 29.73 0.0
02 20:55 E 6 10.00 Overcast OVC090 52.2 36.1 55% 29.73 0.0
02 20:35 E 5 10.00 Overcast OVC090 52.5 35.8 53% 29.73 0.0
02 20:15 SE 6 10.00 Overcast OVC090 54.5 36.1 50% 29.72 0.0
02 19:55 E 3 10.00 Overcast OVC090 56.3 35.4 46% 29.74 0.0
02 19:35 S 6 10.00 Mostly Cloudy SCT070 BKN090 58.1 34.9 42% 29.74 0.0
02 19:15 S 3 10.00 Overcast OVC090 58.5 34.3 40% 29.74 0.0
02 18:55 E 5 10.00 Overcast OVC090 58.3 37.4 64.6 56.3 46% 29.75 0.0
02 18:35 NE 3 10.00 Overcast SCT070 OVC080 56.7 37 48% 29.76 0.0
02 18:15 E 3 10.00 Overcast SCT055 BKN070 OVC080 56.3 38.3 51% 29.77 0.0
02 17:55 Calm 10.00 Overcast SCT065 OVC075 57.2 36 45% 29.78 0.0
02 17:35 SE 7 10.00 Overcast OVC085 57.9 36.3 45% 29.77 0.0
02 17:15 SE 3 10.00 Overcast OVC085 58.3 36 43% 29.77 0.0
02 16:55 Calm 10.00 Overcast SCT065 OVC085 58.5 35.2 42% 29.78 0.0
02 16:35 W 3 G 17 10.00 Overcast SCT049 BKN065 OVC075 58.3 34.9 42% 29.79 0.0
02 16:15 W 18 G 31 10.00 Overcast SCT060 BKN075 OVC085 61.7 32 33% 29.81 0.0
02 15:55 W 22 G 25 10.00 Mostly Cloudy and Breezy SCT060 BKN075 BKN090 61.9 34.3 36% 29.81 0.0
02 15:35 W 14 G 20 10.00 Mostly Cloudy SCT065 BKN090 64.6 32 30% 29.81 0.0
02 15:15 W 15 G 18 10.00 Mostly Cloudy BKN090 64.4 32 30% 29.81 0.0
02 14:55 SW 12 10.00 Mostly Cloudy BKN100 62.8 31.8 31% 29.81 0.0
02 14:35 SW 13 10.00 Partly Cloudy SCT100 63.1 31.8 31% 29.82 0.0
02 14:15 W 14 G 18 10.00 Partly Cloudy SCT100 63 31.1 30% 29.83 0.0
02 13:55 W 13 10.00 Mostly Cloudy BKN100 62.8 31.6 31% 29.84 0.0
02 13:35 W 13 G 18 10.00 Partly Cloudy SCT110 62.2 30.6 30% 29.84 0.0
02 13:15 W 10 G 18 10.00 Partly Cloudy SCT110 63.1 30.6 29% 29.84 0.0
02 12:55 W 10 G 20 10.00 Partly Cloudy SCT110 64.8 30.7 64.8 32.2 28% 29.85 0.0
02 12:35 SW 7 10.00 Partly Cloudy SCT110 62.4 31.1 31% 29.86 0.0
02 12:15 SW 9 G 18 10.00 Mostly Cloudy BKN100 61 29.8 31% 29.87 0.0
02 11:55 SW 10 10.00 Partly Cloudy SCT100 60.4 30.6 32% 29.88 0.0
02 11:35 SW 12 G 17 10.00 Overcast OVC100 59.2 29.3 32% 29.89 0.0
02 11:15 SW 8 10.00 Overcast OVC100 58.8 30.4 34% 29.89 0.0
02 10:55 S 12 10.00 Mostly Cloudy BKN100 55.9 29.1 36% 29.9 0.0
02 10:35 S 13 G 16 10.00 Mostly Cloudy BKN100 55.9 28.9 36% 29.91 0.0
02 10:15 S 10 G 16 10.00 Overcast OVC100 54.9 27.9 35% 29.92 0.0
02 09:55 S 8 10.00 Overcast OVC100 52.2 28.2 40% 29.93 0.0
02 09:35 SW 9 10.00 Overcast OVC100 50.4 28.2 42% 29.94 0.0
02 09:15 SW 7 10.00 Overcast OVC100 48.4 27.7 45% 46 29.95 0.0
02 08:55 SW 7 10.00 Overcast OVC100 45.7 27.3 49% 43 29.96 0.0
02 08:35 SW 7 10.00 Mostly Cloudy BKN100 43.7 26.2 50% 40 29.96 0.0
02 08:15 S 6 10.00 Fair CLR 42.1 26.2 54% 39 29.97 0.0
02 07:55 S 7 10.00 Fair CLR 39.9 26.1 58% 36 29.97 0.0
02 07:35 S 5 10.00 Fair CLR 37.9 25.9 62% 35 29.99 0.0
02 07:15 S 5 10.00 Fair CLR 34.7 25.5 69% 31 29.99 0.0
02 06:55 S 5 10.00 Fair CLR 31.5 25.2 31.5 23.9 78% 27 30 0.0
02 06:35 Calm 10.00 Fair CLR 26.2 22.5 86% 30.01 0.0
02 06:15 S 3 10.00 Partly Cloudy SCT075 25.9 22.5 87% 30.01 0.0
02 05:55 Calm 10.00 Partly Cloudy SCT075 25 20.7 84% 30.01 0.0
02 05:35 S 3 10.00 Mostly Cloudy BKN075 24.8 20.7 84% 30.02 0.0
02 05:15 Calm 10.00 Partly Cloudy SCT075 25 20.5 83% 30.02 0.0
02 04:55 Calm 10.00 Fair CLR 24.8 19.8 81% 30.03 0.0
02 04:35 Calm 10.00 Fair CLR 24.6 19.6 81% 30.03 0.0
02 04:15 Calm 10.00 Fair CLR 25.7 21 82% 30.04 0.0
02 03:55 Calm 10.00 Fair CLR 25.9 21.6 84% 30.04 0.0
02 03:35 Calm 10.00 Fair CLR 26.1 20.8 81% 30.04 0.0
02 03:15 Calm 10.00 Fair CLR 25.9 21.9 85% 30.04 0.0
02 02:55 Calm 10.00 Fair CLR 26.1 20.1 78% 30.04 0.0
02 02:35 Calm 10.00 Fair CLR 26.1 20.8 81% 30.05 0.0
02 02:15 Calm 10.00 Fair CLR 27.7 19.9 73% 30.06 0.0
02 01:55 Calm 10.00 Fair CLR 29.8 22.5 74% 30.06 0.0
02 01:35 Calm 10.00 Fair CLR 25.5 20.3 81% 30.06 0.0
02 01:15 Calm 10.00 Fair CLR 28.4 20.7 73% 30.06 0.0
02 00:55 Calm 10.00 Fair CLR 30 23.2 50.5 27.7 76% 30.06 0.0
02 00:35 Calm 10.00 Fair CLR 28.2 20.5 73% 30.06 0.0
02 00:15 Calm 10.00 Fair CLR 32.7 22.8 67% 30.07 0.0
01 23:55 Calm 10.00 Fair CLR 29.5 20.7 70% 30.07 0.0
01 23:35 Calm 10.00 Fair CLR 33.3 21.7 63% 30.07 0.0
01 23:15 Calm 10.00 Fair CLR 36.7 23 58% 30.07 0.0
01 22:55 Calm 10.00 Fair CLR 35.1 21.9 59% 30.07 0.0
01 22:35 Calm 10.00 Fair CLR 36.9 22.6 56% 30.08 0.0
01 22:15 Calm 10.00 Fair CLR 38.3 21.6 51% 30.08 0.0
01 21:55 Calm 10.00 Fair CLR 36.9 21.7 54% 30.08 0.0
01 21:35 Calm 10.00 Fair CLR 40.5 21.7 47% 30.08 0.0
01 21:15 Calm 10.00 Fair CLR 40.8 20.3 44% 30.08 0.0
01 20:55 NW 3 10.00 Fair CLR 44.6 21.2 39% 30.07 0.0
01 20:35 NW 3 10.00 Partly Cloudy SCT075 44.4 21.2 40% 30.07 0.0
01 20:15 Calm 10.00 Partly Cloudy SCT075 47.7 20.7 34% 30.07 0.0
01 19:55 N 5 10.00 Partly Cloudy SCT075 49.3 21.2 33% 48 30.07 0.0
01 19:35 NE 5 10.00 Partly Cloudy SCT075 50 21.2 32% 49 30.06 0.0
01 19:15 N 5 10.00 Partly Cloudy SCT075 50.4 21 31% 30.06 0.0
01 18:55 Calm 10.00 Partly Cloudy SCT075 49.1 19.9 53.4 47.8 32% 30.06 0.0
01 18:35 Calm 10.00 Partly Cloudy SCT075 50 19.6 30% 30.06 0.0
01 18:15 NE 3 10.00 Fair CLR 51.8 20.3 29% 30.06 0.0
01 17:55 N 3 10.00 Partly Cloudy SCT070 50.2 19.8 30% 30.06 0.0
01 17:35 NW 8 10.00 Mostly Cloudy BKN070 52.9 20.7 28% 30.07 0.0
01 17:15 NE 9 10.00 Fair CLR 52 20.5 29% 30.07 0.0
01 16:55 N 7 10.00 Fair CLR 50.9 19.2 29% 30.07 0.0
01 16:35 NW 6 10.00 Fair CLR 52.9 19.4 27% 30.08 0.0
01 16:15 NW 8 10.00 Fair CLR 51.4 17.8 26% 30.08 0.0
01 15:55 N 13 G 17 10.00 Fair CLR 52 18.5 27% 30.08 0.0
01 15:35 N 8 10.00 Fair CLR 51.6 18.7 27% 30.09 0.0
01 15:15 N 10 G 17 10.00 Fair CLR 51.3 19 28% 30.09 0.0
01 14:55 NW 3 10.00 Fair CLR 50 17.8 28% 30.09 0.0
01 14:35 N 9 G 16 10.00 Fair CLR 50.5 19.2 29% 30.09 0.0
01 14:15 N 9 G 24 10.00 Fair CLR 50.2 18.9 29% 30.09 0.0
01 13:55 N 10 G 16 10.00 Fair CLR 49.3 18.7 30% 45 30.1 0.0
01 13:35 NW 10 G 17 10.00 Fair CLR 48.9 18.7 30% 45 30.1 0.0
01 13:15 NW 9 10.00 Fair CLR 49.1 18.3 29% 46 30.11 0.0
01 12:55 W 8 10.00 Fair CLR 48.4 18 48.6 27.7 30% 45 30.11 0.0
01 12:35 NE 12 G 20 10.00 Fair CLR 48.6 18.7 30% 44 30.11 0.0
01 12:15 N 9 10.00 Fair CLR 47.3 18.5 32% 43 30.11 0.0
01 11:55 NW 8 G 17 10.00 Fair CLR 45.9 18.7 34% 42 30.12 0.0
01 11:35 NE 5 G 16 10.00 Fair CLR 46.2 18.7 33% 45 30.12 0.0
01 11:15 N 9 G 18 10.00 Fair CLR 46 19.2 34% 42 30.12 0.0
01 10:55 N 9 10.00 Partly Cloudy SCT060 46.4 19.9 35% 42 30.12 0.0
01 10:35 NW 9 10.00 Partly Cloudy SCT060 46.8 19.4 34% 43 30.12 0.0
01 10:15 NW 12 G 16 10.00 Partly Cloudy SCT060 44.8 18.9 35% 40 30.12 0.0
01 09:55 NW 8 10.00 Fair CLR 44.4 19.9 38% 40 30.12 0.0
01 09:35 N 5 10.00 Fair CLR 43.5 23.5 45% 41 30.12 0.0
01 09:15 Calm 10.00 Fair CLR 41.2 24.8 52% 30.13 0.0
01 08:55 NW 3 10.00 Fair CLR 39 26.2 60% 30.13 0.0
01 08:35 W 3 10.00 Fair CLR 36.1 27 69% 30.13 0.0
01 08:15 NW 3 10.00 Fair CLR 33.8 27 76% 30.12 0.0
01 07:55 NW 3 10.00 Fair CLR 32 26.1 79% 30.12 0.0
01 07:35 W 3 10.00 Fair CLR 30.9 25.7 81% 30.12 0.0
01 07:15 W 3 10.00 Fair CLR 28.6 24.3 84% 30.11 0.0
01 06:55 W 5 10.00 Fair CLR 27.5 23.7 27.5 21.4 86% 23 30.11 0.0
01 06:35 W 3 10.00 Fair CLR 24.6 20.7 85% 30.1 0.0
01 06:15 Calm 10.00 Fair CLR 23.2 19.4 85% 30.1 0.0
01 05:55 Calm 10.00 Fair CLR 24.6 21.2 87% 30.09 0.0
01 05:35 Calm 10.00 Fair CLR 23.4 19.4 85% 30.09 0.0
01 05:15 NW 5 10.00 Fair CLR 23.4 20.3 88% 18 30.09 0.0
01 04:55 NW 5 10.00 Fair CLR 25.2 20.5 82% 20 30.09 0.0
01 04:35 NW 5 10.00 Fair CLR 25 21 85% 20 30.08 0.0
01 04:15 NW 6 10.00 Fair CLR 22.6 19 86% 16 30.08 0.0
01 03:55 NW 5 10.00 Fair CLR 25.3 19.6 79% 20 30.08 0.0
01 03:35 NW 3 10.00 Fair CLR 25.7 20.8 82% 30.08 0.0
01 03:15 NW 3 10.00 Fair CLR 25 19.2 79% 30.08 0.0
01 02:55 W 3 10.00 Fair CLR 25.7 19 76% 30.08 0.0
01 02:35 W 3 10.00 Fair CLR 25.5 19 76% 30.08 0.0
01 02:15 W 5 10.00 Fair CLR 23.9 19 82% 19 30.08 0.0
01 01:55 Calm 10.00 Fair CLR 24.1 18.3 79% 30.08 0.0
01 01:35 Calm 10.00 Fair CLR 24.6 18.7 78% 30.08 0.0
01 01:15 Calm 10.00 Fair CLR 25.3 19.8 79% 30.08 0.0
01 00:55 Calm 10.00 Fair CLR 23.7 18.7 41.9 23.5 81% 30.08 0.0
01 00:35 W 3 10.00 Fair CLR 25.7 19.2 76% 30.08 0.0
01 00:15 NW 3 10.00 Fair CLR 25.5 19.6 78% 30.08 0.0
30 23:55 W 3 10.00 Fair CLR 25.7 19.4 77% 30.08 0.0
30 23:35 NW 3 10.00 Fair CLR 28.6 20.5 72% 30.08 0.0
30 23:15 Calm 10.00 Fair CLR 28.2 20.1 72% 30.07 0.0
30 22:55 Calm 10.00 Fair CLR 30.7 21 67% 30.07 0.0
30 22:35 NE 3 10.00 Fair CLR 34.7 21 57% 30.07 0.0
30 22:15 NE 3 10.00 Mostly Cloudy BKN055 35.6 21.2 56% 30.07 0.0
30 21:55 NE 6 10.00 Overcast OVC055 37.4 21.6 53% 33 30.07 0.0
30 21:35 N 5 10.00 Overcast OVC055 37.4 21.7 53% 34 30.07 0.0
30 21:15 N 3 10.00 Overcast OVC055 36.9 21.2 53% 30.06 0.0
30 20:55 N 3 10.00 Mostly Cloudy BKN055 37 20.8 52% 30.06 0.0
30 20:35 N 3 10.00 Fair CLR 38.3 20.7 49% 30.05 0.0
30 20:15 N 5 10.00 Fair CLR 39.2 21 48% 36 30.05 0.0
30 19:55 N 6 10.00 Partly Cloudy SCT050 40.1 21 46% 37 30.05 0.0
30 19:35 N 6 10.00 Partly Cloudy SCT050 40.6 21.2 46% 37 30.05 0.0
30 19:15 N 10 10.00 Mostly Cloudy BKN050 41.4 21.2 45% 36 30.04 0.0
30 18:55 N 10 10.00 Overcast OVC050 41.9 21 46.6 41.7 43% 36 30.04 0.0
30 18:35 N 9 10.00 Mostly Cloudy BKN050 42.8 21.2 42% 38 30.04 0.0
30 18:15 N 12 G 16 10.00 Mostly Cloudy BKN050 43 20.8 41% 37 30.04 0.0
30 17:55 N 10 10.00 Overcast OVC050 44.1 21.4 41% 39 30.04 0.0
30 17:35 N 8 10.00 Mostly Cloudy BKN050 43.3 21.4 42% 39 30.04 0.0
30 17:15 N 10 10.00 Partly Cloudy SCT050 43.3 21.4 42% 38 30.04 0.0
30 16:55 N 8 10.00 Mostly Cloudy BKN050 44.6 21.4 40% 41 30.04 0.0
30 16:35 N 5 G 9 10.00 Mostly Cloudy BKN050 43.3 21.6 42% 41 30.05 0.0
Date Time (cdt) Wind (mph) Vis. (mi.) Weather Sky Cond. Air Dwpt Max. Min. Relative Humidity Wind Chill (°F) Heat Index (°F) altimeter (in) sea level (mb) 1 hr 3 hr 6 hr
6 hour
Temperature (ºF) Pressure Precipitation (in)